sensor_id;sensor_type;location;lat;lon;timestamp;temperature;humidity
4637;DHT22;2331;48.806;9.140;2024-03-08T00:00:18;8.10;1.00
4637;DHT22;2331;48.806;9.140;2024-03-08T00:02:45;8.10;1.00
4637;DHT22;2331;48.806;9.140;2024-03-08T00:05:13;8.10;1.00
4637;DHT22;2331;48.806;9.140;2024-03-08T00:07:41;8.10;1.00
4637;DHT22;2331;48.806;9.140;2024-03-08T00:10:09;8.10;1.00
4637;DHT22;2331;48.806;9.140;2024-03-08T00:12:38;8.00;1.00
4637;DHT22;2331;48.806;9.140;2024-03-08T00:15:08;8.00;1.00
4637;DHT22;2331;48.806;9.140;2024-03-08T00:17:35;7.90;1.00
4637;DHT22;2331;48.806;9.140;2024-03-08T00:20:01;7.90;1.00
4637;DHT22;2331;48.806;9.140;2024-03-08T00:22:33;7.90;1.00
4637;DHT22;2331;48.806;9.140;2024-03-08T00:25:01;7.90;1.00
4637;DHT22;2331;48.806;9.140;2024-03-08T00:27:28;7.90;1.00
4637;DHT22;2331;48.806;9.140;2024-03-08T00:29:58;7.80;1.00
4637;DHT22;2331;48.806;9.140;2024-03-08T00:32:25;7.80;1.00
4637;DHT22;2331;48.806;9.140;2024-03-08T00:34:52;7.80;1.00
4637;DHT22;2331;48.806;9.140;2024-03-08T00:37:20;7.80;1.00
4637;DHT22;2331;48.806;9.140;2024-03-08T00:39:47;7.70;1.00
4637;DHT22;2331;48.806;9.140;2024-03-08T00:42:15;7.70;1.00
4637;DHT22;2331;48.806;9.140;2024-03-08T00:44:41;7.60;1.00
4637;DHT22;2331;48.806;9.140;2024-03-08T00:47:09;7.60;1.00
4637;DHT22;2331;48.806;9.140;2024-03-08T00:49:36;7.60;1.00
4637;DHT22;2331;48.806;9.140;2024-03-08T00:52:04;7.60;1.00
4637;DHT22;2331;48.806;9.140;2024-03-08T00:54:31;7.60;1.00
4637;DHT22;2331;48.806;9.140;2024-03-08T00:56:58;7.60;1.00
4637;DHT22;2331;48.806;9.140;2024-03-08T00:59:28;7.50;1.00
4637;DHT22;2331;48.806;9.140;2024-03-08T01:01:56;7.50;1.00
4637;DHT22;2331;48.806;9.140;2024-03-08T01:04:24;7.50;1.00
4637;DHT22;2331;48.806;9.140;2024-03-08T01:06:51;7.50;1.00
4637;DHT22;2331;48.806;9.140;2024-03-08T01:09:18;7.50;1.00
4637;DHT22;2331;48.806;9.140;2024-03-08T01:11:47;7.50;1.00
4637;DHT22;2331;48.806;9.140;2024-03-08T01:14:15;7.50;1.00
4637;DHT22;2331;48.806;9.140;2024-03-08T01:16:41;7.40;1.00
4637;DHT22;2331;48.806;9.140;2024-03-08T01:19:08;7.40;1.00
4637;DHT22;2331;48.806;9.140;2024-03-08T01:21:36;7.40;1.00
4637;DHT22;2331;48.806;9.140;2024-03-08T01:24:03;7.40;1.00
4637;DHT22;2331;48.806;9.140;2024-03-08T01:26:30;7.30;1.00
4637;DHT22;2331;48.806;9.140;2024-03-08T01:28:57;7.30;1.00
4637;DHT22;2331;48.806;9.140;2024-03-08T01:31:24;7.40;1.00
4637;DHT22;2331;48.806;9.140;2024-03-08T01:33:51;7.30;1.00
4637;DHT22;2331;48.806;9.140;2024-03-08T01:36:18;7.20;1.00
4637;DHT22;2331;48.806;9.140;2024-03-08T01:38:47;7.20;1.00
4637;DHT22;2331;48.806;9.140;2024-03-08T01:41:13;7.20;1.00
4637;DHT22;2331;48.806;9.140;2024-03-08T01:43:41;7.20;1.00
4637;DHT22;2331;48.806;9.140;2024-03-08T01:46:09;7.20;1.00
4637;DHT22;2331;48.806;9.140;2024-03-08T01:48:38;7.20;1.00
4637;DHT22;2331;48.806;9.140;2024-03-08T01:51:06;7.20;1.00
4637;DHT22;2331;48.806;9.140;2024-03-08T01:53:34;7.10;1.00
4637;DHT22;2331;48.806;9.140;2024-03-08T01:56:02;7.20;1.00
4637;DHT22;2331;48.806;9.140;2024-03-08T01:58:29;7.10;1.00
4637;DHT22;2331;48.806;9.140;2024-03-08T02:00:58;7.10;1.00
4637;DHT22;2331;48.806;9.140;2024-03-08T02:03:25;7.10;1.00
4637;DHT22;2331;48.806;9.140;2024-03-08T02:05:53;7.10;1.00
4637;DHT22;2331;48.806;9.140;2024-03-08T02:08:20;7.10;1.00
4637;DHT22;2331;48.806;9.140;2024-03-08T02:10:48;7.00;1.00
4637;DHT22;2331;48.806;9.140;2024-03-08T02:13:16;7.00;1.00
4637;DHT22;2331;48.806;9.140;2024-03-08T02:15:52;7.00;1.00
4637;DHT22;2331;48.806;9.140;2024-03-08T02:18:19;6.90;1.00
4637;DHT22;2331;48.806;9.140;2024-03-08T02:20:48;6.90;1.00
4637;DHT22;2331;48.806;9.140;2024-03-08T02:23:15;6.90;1.00
4637;DHT22;2331;48.806;9.140;2024-03-08T02:25:42;6.90;1.00
4637;DHT22;2331;48.806;9.140;2024-03-08T02:28:10;6.90;1.00
4637;DHT22;2331;48.806;9.140;2024-03-08T02:30:37;6.80;1.00
4637;DHT22;2331;48.806;9.140;2024-03-08T02:33:04;6.80;1.00
4637;DHT22;2331;48.806;9.140;2024-03-08T02:35:31;6.80;1.00
4637;DHT22;2331;48.806;9.140;2024-03-08T02:37:59;6.70;1.00
4637;DHT22;2331;48.806;9.140;2024-03-08T02:40:26;6.70;1.00
4637;DHT22;2331;48.806;9.140;2024-03-08T02:42:53;6.70;1.00
4637;DHT22;2331;48.806;9.140;2024-03-08T02:45:19;6.70;1.00
4637;DHT22;2331;48.806;9.140;2024-03-08T02:47:46;6.60;1.00
4637;DHT22;2331;48.806;9.140;2024-03-08T02:50:15;6.60;1.00
4637;DHT22;2331;48.806;9.140;2024-03-08T02:52:42;6.60;1.00
4637;DHT22;2331;48.806;9.140;2024-03-08T02:55:10;6.60;1.00
4637;DHT22;2331;48.806;9.140;2024-03-08T02:57:40;6.60;1.00
4637;DHT22;2331;48.806;9.140;2024-03-08T03:00:08;6.60;1.00
4637;DHT22;2331;48.806;9.140;2024-03-08T03:02:35;6.60;1.00
4637;DHT22;2331;48.806;9.140;2024-03-08T03:05:03;6.60;1.00
4637;DHT22;2331;48.806;9.140;2024-03-08T03:07:31;6.60;1.00
4637;DHT22;2331;48.806;9.140;2024-03-08T03:09:58;6.50;1.00
4637;DHT22;2331;48.806;9.140;2024-03-08T03:12:27;6.50;1.00
4637;DHT22;2331;48.806;9.140;2024-03-08T03:14:54;6.50;1.00
4637;DHT22;2331;48.806;9.140;2024-03-08T03:17:22;6.50;1.00
4637;DHT22;2331;48.806;9.140;2024-03-08T03:19:49;6.50;1.00
4637;DHT22;2331;48.806;9.140;2024-03-08T03:22:15;6.50;1.00
4637;DHT22;2331;48.806;9.140;2024-03-08T03:24:42;6.40;1.00
4637;DHT22;2331;48.806;9.140;2024-03-08T03:27:09;6.40;1.00
4637;DHT22;2331;48.806;9.140;2024-03-08T03:29:38;6.40;1.00
4637;DHT22;2331;48.806;9.140;2024-03-08T03:32:05;6.40;1.00
4637;DHT22;2331;48.806;9.140;2024-03-08T03:34:33;6.40;1.00
4637;DHT22;2331;48.806;9.140;2024-03-08T03:37:01;6.40;1.00
4637;DHT22;2331;48.806;9.140;2024-03-08T03:39:28;6.40;1.00
4637;DHT22;2331;48.806;9.140;2024-03-08T03:41:57;6.40;1.00
4637;DHT22;2331;48.806;9.140;2024-03-08T03:44:24;6.40;1.00
4637;DHT22;2331;48.806;9.140;2024-03-08T03:46:52;6.30;1.00
4637;DHT22;2331;48.806;9.140;2024-03-08T03:49:18;6.40;1.00
4637;DHT22;2331;48.806;9.140;2024-03-08T03:51:45;6.40;1.00
4637;DHT22;2331;48.806;9.140;2024-03-08T03:54:12;6.40;1.00
4637;DHT22;2331;48.806;9.140;2024-03-08T03:56:39;6.30;1.00
4637;DHT22;2331;48.806;9.140;2024-03-08T03:59:06;6.30;1.00
4637;DHT22;2331;48.806;9.140;2024-03-08T04:01:33;6.30;1.00
4637;DHT22;2331;48.806;9.140;2024-03-08T04:04:02;6.30;1.00
4637;DHT22;2331;48.806;9.140;2024-03-08T04:06:28;6.30;1.00
4637;DHT22;2331;48.806;9.140;2024-03-08T04:08:55;6.30;1.00
4637;DHT22;2331;48.806;9.140;2024-03-08T04:11:22;6.20;1.00
4637;DHT22;2331;48.806;9.140;2024-03-08T04:13:48;6.20;1.00
4637;DHT22;2331;48.806;9.140;2024-03-08T04:16:15;6.10;1.00
4637;DHT22;2331;48.806;9.140;2024-03-08T04:18:42;6.10;1.00
4637;DHT22;2331;48.806;9.140;2024-03-08T04:21:10;6.10;1.00
4637;DHT22;2331;48.806;9.140;2024-03-08T04:23:37;6.10;1.00
4637;DHT22;2331;48.806;9.140;2024-03-08T04:26:04;6.10;1.00
4637;DHT22;2331;48.806;9.140;2024-03-08T04:28:32;6.10;1.00
4637;DHT22;2331;48.806;9.140;2024-03-08T04:30:58;6.10;1.00
4637;DHT22;2331;48.806;9.140;2024-03-08T04:33:26;6.10;1.00
4637;DHT22;2331;48.806;9.140;2024-03-08T04:35:53;6.10;1.00
4637;DHT22;2331;48.806;9.140;2024-03-08T04:38:21;6.10;1.00
4637;DHT22;2331;48.806;9.140;2024-03-08T04:40:48;6.10;1.00
4637;DHT22;2331;48.806;9.140;2024-03-08T04:43:15;6.00;1.00
4637;DHT22;2331;48.806;9.140;2024-03-08T04:45:43;6.00;1.00
4637;DHT22;2331;48.806;9.140;2024-03-08T04:48:10;6.00;1.00
4637;DHT22;2331;48.806;9.140;2024-03-08T04:50:38;6.00;1.00
4637;DHT22;2331;48.806;9.140;2024-03-08T04:53:05;6.00;1.00
4637;DHT22;2331;48.806;9.140;2024-03-08T04:55:34;6.00;1.00
4637;DHT22;2331;48.806;9.140;2024-03-08T04:58:03;6.00;1.00
4637;DHT22;2331;48.806;9.140;2024-03-08T05:00:31;6.00;1.00
4637;DHT22;2331;48.806;9.140;2024-03-08T05:02:58;6.00;1.00
4637;DHT22;2331;48.806;9.140;2024-03-08T05:05:24;6.00;1.00
4637;DHT22;2331;48.806;9.140;2024-03-08T05:07:53;6.00;1.00
4637;DHT22;2331;48.806;9.140;2024-03-08T05:10:20;6.00;1.00
4637;DHT22;2331;48.806;9.140;2024-03-08T05:12:48;6.00;1.00
4637;DHT22;2331;48.806;9.140;2024-03-08T05:15:15;6.00;1.00
4637;DHT22;2331;48.806;9.140;2024-03-08T05:17:42;6.00;1.00
4637;DHT22;2331;48.806;9.140;2024-03-08T05:20:10;6.00;1.00
4637;DHT22;2331;48.806;9.140;2024-03-08T05:22:38;6.00;1.00
4637;DHT22;2331;48.806;9.140;2024-03-08T05:25:06;6.00;1.00
4637;DHT22;2331;48.806;9.140;2024-03-08T05:27:34;6.00;1.00
4637;DHT22;2331;48.806;9.140;2024-03-08T05:30:03;5.90;1.00
4637;DHT22;2331;48.806;9.140;2024-03-08T05:32:31;5.90;1.00
4637;DHT22;2331;48.806;9.140;2024-03-08T05:34:58;6.00;1.00
4637;DHT22;2331;48.806;9.140;2024-03-08T05:37:24;5.90;1.00
4637;DHT22;2331;48.806;9.140;2024-03-08T05:39:51;5.90;1.00
4637;DHT22;2331;48.806;9.140;2024-03-08T05:42:19;5.90;1.00
4637;DHT22;2331;48.806;9.140;2024-03-08T05:44:47;5.90;1.00
4637;DHT22;2331;48.806;9.140;2024-03-08T05:47:16;5.90;1.00
4637;DHT22;2331;48.806;9.140;2024-03-08T05:49:44;5.90;1.00
4637;DHT22;2331;48.806;9.140;2024-03-08T05:52:11;5.80;1.00
4637;DHT22;2331;48.806;9.140;2024-03-08T05:54:38;5.80;1.00
4637;DHT22;2331;48.806;9.140;2024-03-08T05:57:06;5.80;1.00
4637;DHT22;2331;48.806;9.140;2024-03-08T05:59:33;5.80;1.00
4637;DHT22;2331;48.806;9.140;2024-03-08T06:01:59;5.80;1.00
4637;DHT22;2331;48.806;9.140;2024-03-08T06:04:27;5.80;1.00
4637;DHT22;2331;48.806;9.140;2024-03-08T06:06:54;5.80;1.00
4637;DHT22;2331;48.806;9.140;2024-03-08T06:09:22;5.80;1.00
4637;DHT22;2331;48.806;9.140;2024-03-08T06:11:50;5.80;1.00
4637;DHT22;2331;48.806;9.140;2024-03-08T06:14:16;5.80;1.00
4637;DHT22;2331;48.806;9.140;2024-03-08T06:16:44;5.80;1.00
4637;DHT22;2331;48.806;9.140;2024-03-08T06:19:11;5.70;1.00
4637;DHT22;2331;48.806;9.140;2024-03-08T06:21:39;5.70;1.00
4637;DHT22;2331;48.806;9.140;2024-03-08T06:24:07;5.70;1.00
4637;DHT22;2331;48.806;9.140;2024-03-08T06:26:33;5.70;1.00
4637;DHT22;2331;48.806;9.140;2024-03-08T06:29:01;5.80;1.00
4637;DHT22;2331;48.806;9.140;2024-03-08T06:31:27;5.70;1.00
4637;DHT22;2331;48.806;9.140;2024-03-08T06:33:54;5.70;1.00
4637;DHT22;2331;48.806;9.140;2024-03-08T06:36:21;5.70;1.00
4637;DHT22;2331;48.806;9.140;2024-03-08T06:38:49;5.70;1.00
4637;DHT22;2331;48.806;9.140;2024-03-08T06:41:16;5.70;1.00
4637;DHT22;2331;48.806;9.140;2024-03-08T06:43:43;5.80;1.00
4637;DHT22;2331;48.806;9.140;2024-03-08T06:46:10;5.80;1.00
4637;DHT22;2331;48.806;9.140;2024-03-08T06:48:38;5.70;1.00
4637;DHT22;2331;48.806;9.140;2024-03-08T06:51:05;5.80;1.00
4637;DHT22;2331;48.806;9.140;2024-03-08T06:53:32;5.80;1.00
4637;DHT22;2331;48.806;9.140;2024-03-08T06:56:01;5.80;1.00
4637;DHT22;2331;48.806;9.140;2024-03-08T06:58:28;5.80;1.00
4637;DHT22;2331;48.806;9.140;2024-03-08T07:00:55;5.80;1.00
4637;DHT22;2331;48.806;9.140;2024-03-08T07:03:24;5.80;1.00
4637;DHT22;2331;48.806;9.140;2024-03-08T07:05:51;5.80;1.00
4637;DHT22;2331;48.806;9.140;2024-03-08T07:08:18;5.80;1.00
4637;DHT22;2331;48.806;9.140;2024-03-08T07:10:47;5.80;1.00
4637;DHT22;2331;48.806;9.140;2024-03-08T07:13:16;5.80;1.00
4637;DHT22;2331;48.806;9.140;2024-03-08T07:15:43;5.80;1.00
4637;DHT22;2331;48.806;9.140;2024-03-08T07:18:10;5.80;1.00
4637;DHT22;2331;48.806;9.140;2024-03-08T07:20:40;5.80;1.00
4637;DHT22;2331;48.806;9.140;2024-03-08T07:23:07;5.90;1.00
4637;DHT22;2331;48.806;9.140;2024-03-08T07:25:34;5.90;1.00
4637;DHT22;2331;48.806;9.140;2024-03-08T07:28:00;5.90;1.00
4637;DHT22;2331;48.806;9.140;2024-03-08T07:30:29;5.90;1.00
4637;DHT22;2331;48.806;9.140;2024-03-08T07:33:13;5.90;1.00
4637;DHT22;2331;48.806;9.140;2024-03-08T07:35:40;6.00;1.00
4637;DHT22;2331;48.806;9.140;2024-03-08T07:38:08;5.90;1.00
4637;DHT22;2331;48.806;9.140;2024-03-08T07:40:36;6.00;1.00
4637;DHT22;2331;48.806;9.140;2024-03-08T07:43:04;5.90;1.00
4637;DHT22;2331;48.806;9.140;2024-03-08T07:45:32;5.90;1.00
4637;DHT22;2331;48.806;9.140;2024-03-08T07:48:00;5.90;1.00
4637;DHT22;2331;48.806;9.140;2024-03-08T07:50:27;5.90;1.00
4637;DHT22;2331;48.806;9.140;2024-03-08T07:52:54;6.00;1.00
4637;DHT22;2331;48.806;9.140;2024-03-08T07:55:21;6.00;1.00
4637;DHT22;2331;48.806;9.140;2024-03-08T07:57:49;6.10;1.00
4637;DHT22;2331;48.806;9.140;2024-03-08T08:00:17;6.10;1.00
4637;DHT22;2331;48.806;9.140;2024-03-08T08:02:45;6.10;1.00
4637;DHT22;2331;48.806;9.140;2024-03-08T08:05:15;6.10;1.00
4637;DHT22;2331;48.806;9.140;2024-03-08T08:07:44;6.10;1.00
4637;DHT22;2331;48.806;9.140;2024-03-08T08:10:12;6.10;1.00
4637;DHT22;2331;48.806;9.140;2024-03-08T08:12:44;6.10;1.00
4637;DHT22;2331;48.806;9.140;2024-03-08T08:15:10;6.10;1.00
4637;DHT22;2331;48.806;9.140;2024-03-08T08:17:38;6.20;1.00
4637;DHT22;2331;48.806;9.140;2024-03-08T08:20:07;6.20;1.00
4637;DHT22;2331;48.806;9.140;2024-03-08T08:22:34;6.20;1.00
4637;DHT22;2331;48.806;9.140;2024-03-08T08:25:01;6.20;1.00
4637;DHT22;2331;48.806;9.140;2024-03-08T08:27:28;6.30;1.00
4637;DHT22;2331;48.806;9.140;2024-03-08T08:29:55;6.30;1.00
4637;DHT22;2331;48.806;9.140;2024-03-08T08:32:22;6.40;1.00
4637;DHT22;2331;48.806;9.140;2024-03-08T08:34:49;6.40;1.00
4637;DHT22;2331;48.806;9.140;2024-03-08T08:37:17;6.40;1.00
4637;DHT22;2331;48.806;9.140;2024-03-08T08:39:44;6.40;1.00
4637;DHT22;2331;48.806;9.140;2024-03-08T08:42:10;6.40;1.00
4637;DHT22;2331;48.806;9.140;2024-03-08T08:44:38;6.40;1.00
4637;DHT22;2331;48.806;9.140;2024-03-08T08:47:05;6.50;1.00
4637;DHT22;2331;48.806;9.140;2024-03-08T08:49:32;6.50;1.00
4637;DHT22;2331;48.806;9.140;2024-03-08T08:51:59;6.60;1.00
4637;DHT22;2331;48.806;9.140;2024-03-08T08:54:27;6.50;1.00
4637;DHT22;2331;48.806;9.140;2024-03-08T08:56:55;6.50;1.00
4637;DHT22;2331;48.806;9.140;2024-03-08T08:59:21;6.50;1.00
4637;DHT22;2331;48.806;9.140;2024-03-08T09:01:50;6.50;1.00
4637;DHT22;2331;48.806;9.140;2024-03-08T09:04:19;6.50;1.00
4637;DHT22;2331;48.806;9.140;2024-03-08T09:06:47;6.60;1.00
4637;DHT22;2331;48.806;9.140;2024-03-08T09:09:14;6.60;1.00
4637;DHT22;2331;48.806;9.140;2024-03-08T09:11:43;6.60;1.00
4637;DHT22;2331;48.806;9.140;2024-03-08T09:14:11;6.60;1.00
4637;DHT22;2331;48.806;9.140;2024-03-08T09:16:38;6.70;1.00
4637;DHT22;2331;48.806;9.140;2024-03-08T09:19:05;6.70;1.00
4637;DHT22;2331;48.806;9.140;2024-03-08T09:21:32;6.70;1.00
4637;DHT22;2331;48.806;9.140;2024-03-08T09:24:00;6.70;1.00
4637;DHT22;2331;48.806;9.140;2024-03-08T09:26:27;6.70;1.00
4637;DHT22;2331;48.806;9.140;2024-03-08T09:28:55;6.70;1.00
4637;DHT22;2331;48.806;9.140;2024-03-08T09:31:22;6.80;1.00
4637;DHT22;2331;48.806;9.140;2024-03-08T09:33:48;6.80;1.00
4637;DHT22;2331;48.806;9.140;2024-03-08T09:36:16;6.90;1.00
4637;DHT22;2331;48.806;9.140;2024-03-08T09:38:43;6.90;1.00
4637;DHT22;2331;48.806;9.140;2024-03-08T09:41:10;6.90;1.00
4637;DHT22;2331;48.806;9.140;2024-03-08T09:43:38;6.90;1.00
4637;DHT22;2331;48.806;9.140;2024-03-08T09:46:07;6.90;1.00
4637;DHT22;2331;48.806;9.140;2024-03-08T09:48:34;6.90;1.00
4637;DHT22;2331;48.806;9.140;2024-03-08T09:51:02;7.00;1.00
4637;DHT22;2331;48.806;9.140;2024-03-08T09:53:29;7.00;1.00
4637;DHT22;2331;48.806;9.140;2024-03-08T09:55:56;7.00;1.00
4637;DHT22;2331;48.806;9.140;2024-03-08T09:58:24;7.00;1.00
4637;DHT22;2331;48.806;9.140;2024-03-08T10:01:12;7.10;1.00
4637;DHT22;2331;48.806;9.140;2024-03-08T10:03:39;7.10;1.00
4637;DHT22;2331;48.806;9.140;2024-03-08T10:06:06;7.20;1.00
4637;DHT22;2331;48.806;9.140;2024-03-08T10:08:35;7.20;1.00
4637;DHT22;2331;48.806;9.140;2024-03-08T10:11:02;7.20;1.00
4637;DHT22;2331;48.806;9.140;2024-03-08T10:13:29;7.20;1.00
4637;DHT22;2331;48.806;9.140;2024-03-08T10:15:57;7.30;1.00
4637;DHT22;2331;48.806;9.140;2024-03-08T10:18:26;7.30;1.00
4637;DHT22;2331;48.806;9.140;2024-03-08T10:21:03;7.30;1.00
4637;DHT22;2331;48.806;9.140;2024-03-08T10:23:34;7.20;1.00
4637;DHT22;2331;48.806;9.140;2024-03-08T10:26:11;7.30;1.00
4637;DHT22;2331;48.806;9.140;2024-03-08T10:28:40;7.30;1.00
4637;DHT22;2331;48.806;9.140;2024-03-08T10:31:07;7.40;1.00
4637;DHT22;2331;48.806;9.140;2024-03-08T10:33:36;7.40;1.00
4637;DHT22;2331;48.806;9.140;2024-03-08T10:36:06;7.50;1.00
4637;DHT22;2331;48.806;9.140;2024-03-08T10:38:36;7.50;1.00
4637;DHT22;2331;48.806;9.140;2024-03-08T10:41:03;7.60;1.00
4637;DHT22;2331;48.806;9.140;2024-03-08T10:43:35;7.60;1.00
4637;DHT22;2331;48.806;9.140;2024-03-08T10:46:13;7.60;1.00
4637;DHT22;2331;48.806;9.140;2024-03-08T10:48:45;7.70;1.00
4637;DHT22;2331;48.806;9.140;2024-03-08T10:51:15;7.70;1.00
4637;DHT22;2331;48.806;9.140;2024-03-08T10:53:44;7.80;1.00
4637;DHT22;2331;48.806;9.140;2024-03-08T10:56:11;7.90;1.00
4637;DHT22;2331;48.806;9.140;2024-03-08T10:58:40;7.90;1.00
4637;DHT22;2331;48.806;9.140;2024-03-08T11:01:10;7.90;1.00
4637;DHT22;2331;48.806;9.140;2024-03-08T11:03:50;8.00;1.00
4637;DHT22;2331;48.806;9.140;2024-03-08T11:06:22;8.00;1.00
4637;DHT22;2331;48.806;9.140;2024-03-08T11:08:49;8.10;1.00
4637;DHT22;2331;48.806;9.140;2024-03-08T11:11:33;8.10;1.00
4637;DHT22;2331;48.806;9.140;2024-03-08T11:14:03;8.10;1.00
4637;DHT22;2331;48.806;9.140;2024-03-08T11:16:39;8.20;1.00
4637;DHT22;2331;48.806;9.140;2024-03-08T11:22:03;8.20;1.00
4637;DHT22;2331;48.806;9.140;2024-03-08T11:24:39;8.30;1.00
4637;DHT22;2331;48.806;9.140;2024-03-08T11:27:07;8.30;1.00
4637;DHT22;2331;48.806;9.140;2024-03-08T11:29:38;8.40;1.00
4637;DHT22;2331;48.806;9.140;2024-03-08T11:32:10;8.50;1.00
4637;DHT22;2331;48.806;9.140;2024-03-08T11:34:37;8.50;1.00
4637;DHT22;2331;48.806;9.140;2024-03-08T11:37:06;8.50;1.00
4637;DHT22;2331;48.806;9.140;2024-03-08T11:39:35;8.50;1.00
4637;DHT22;2331;48.806;9.140;2024-03-08T11:42:03;8.60;1.00
4637;DHT22;2331;48.806;9.140;2024-03-08T11:44:30;8.60;1.00
4637;DHT22;2331;48.806;9.140;2024-03-08T11:46:57;8.50;1.00
4637;DHT22;2331;48.806;9.140;2024-03-08T11:49:24;8.60;1.00
4637;DHT22;2331;48.806;9.140;2024-03-08T11:51:52;8.60;1.00
4637;DHT22;2331;48.806;9.140;2024-03-08T11:54:21;8.70;1.00
4637;DHT22;2331;48.806;9.140;2024-03-08T11:56:51;8.80;1.00
4637;DHT22;2331;48.806;9.140;2024-03-08T11:59:18;8.90;1.00
4637;DHT22;2331;48.806;9.140;2024-03-08T12:02:01;9.10;1.00
4637;DHT22;2331;48.806;9.140;2024-03-08T12:04:29;9.20;1.00
4637;DHT22;2331;48.806;9.140;2024-03-08T12:06:57;9.30;1.00
4637;DHT22;2331;48.806;9.140;2024-03-08T12:09:28;9.40;1.00
4637;DHT22;2331;48.806;9.140;2024-03-08T12:11:55;9.50;1.00
4637;DHT22;2331;48.806;9.140;2024-03-08T12:14:21;9.50;1.00
4637;DHT22;2331;48.806;9.140;2024-03-08T12:16:50;9.60;1.00
4637;DHT22;2331;48.806;9.140;2024-03-08T12:19:17;9.70;1.00
4637;DHT22;2331;48.806;9.140;2024-03-08T12:21:44;9.80;1.00
4637;DHT22;2331;48.806;9.140;2024-03-08T12:24:15;9.80;1.00
4637;DHT22;2331;48.806;9.140;2024-03-08T12:26:46;9.90;1.00
4637;DHT22;2331;48.806;9.140;2024-03-08T12:29:15;10.00;1.00
4637;DHT22;2331;48.806;9.140;2024-03-08T12:31:43;10.10;1.00
4637;DHT22;2331;48.806;9.140;2024-03-08T12:34:10;10.20;1.00
4637;DHT22;2331;48.806;9.140;2024-03-08T12:36:37;10.30;1.00
4637;DHT22;2331;48.806;9.140;2024-03-08T12:39:06;10.40;1.00
4637;DHT22;2331;48.806;9.140;2024-03-08T12:41:39;10.50;1.00
4637;DHT22;2331;48.806;9.140;2024-03-08T12:44:08;10.50;1.00
4637;DHT22;2331;48.806;9.140;2024-03-08T12:46:37;10.60;1.00
4637;DHT22;2331;48.806;9.140;2024-03-08T12:49:06;10.70;1.00
4637;DHT22;2331;48.806;9.140;2024-03-08T12:51:33;10.70;1.00
4637;DHT22;2331;48.806;9.140;2024-03-08T12:54:00;10.80;1.00
4637;DHT22;2331;48.806;9.140;2024-03-08T12:56:29;10.90;1.00
4637;DHT22;2331;48.806;9.140;2024-03-08T12:58:58;11.00;1.00
4637;DHT22;2331;48.806;9.140;2024-03-08T13:01:26;11.10;1.00
4637;DHT22;2331;48.806;9.140;2024-03-08T13:03:53;11.10;1.00
4637;DHT22;2331;48.806;9.140;2024-03-08T13:06:21;11.20;1.00
4637;DHT22;2331;48.806;9.140;2024-03-08T13:08:50;11.30;1.00
4637;DHT22;2331;48.806;9.140;2024-03-08T13:11:17;11.40;1.00
4637;DHT22;2331;48.806;9.140;2024-03-08T13:13:45;11.40;1.00
4637;DHT22;2331;48.806;9.140;2024-03-08T13:16:11;11.40;1.00
4637;DHT22;2331;48.806;9.140;2024-03-08T13:18:41;11.50;1.00
4637;DHT22;2331;48.806;9.140;2024-03-08T13:21:08;11.50;1.00
4637;DHT22;2331;48.806;9.140;2024-03-08T13:23:36;11.60;1.00
4637;DHT22;2331;48.806;9.140;2024-03-08T13:26:05;11.60;1.00
4637;DHT22;2331;48.806;9.140;2024-03-08T13:28:32;11.70;1.00
4637;DHT22;2331;48.806;9.140;2024-03-08T13:31:03;11.80;1.00
4637;DHT22;2331;48.806;9.140;2024-03-08T13:33:32;11.80;1.00
4637;DHT22;2331;48.806;9.140;2024-03-08T13:36:02;11.90;1.00
4637;DHT22;2331;48.806;9.140;2024-03-08T13:38:29;11.90;1.00
4637;DHT22;2331;48.806;9.140;2024-03-08T13:40:58;12.00;1.00
4637;DHT22;2331;48.806;9.140;2024-03-08T13:43:24;12.10;1.00
4637;DHT22;2331;48.806;9.140;2024-03-08T13:45:54;12.10;1.00
4637;DHT22;2331;48.806;9.140;2024-03-08T13:48:21;12.10;1.00
4637;DHT22;2331;48.806;9.140;2024-03-08T13:50:48;12.20;1.00
4637;DHT22;2331;48.806;9.140;2024-03-08T13:53:16;12.20;1.00
4637;DHT22;2331;48.806;9.140;2024-03-08T13:55:44;12.30;1.00
4637;DHT22;2331;48.806;9.140;2024-03-08T13:58:10;12.30;1.00
4637;DHT22;2331;48.806;9.140;2024-03-08T14:00:39;12.40;1.00
4637;DHT22;2331;48.806;9.140;2024-03-08T14:03:09;12.40;1.00
4637;DHT22;2331;48.806;9.140;2024-03-08T14:05:39;12.50;1.00
4637;DHT22;2331;48.806;9.140;2024-03-08T14:08:06;12.40;1.00
4637;DHT22;2331;48.806;9.140;2024-03-08T14:10:35;12.40;1.00
4637;DHT22;2331;48.806;9.140;2024-03-08T14:13:03;12.50;1.00
4637;DHT22;2331;48.806;9.140;2024-03-08T14:15:30;12.60;1.00
4637;DHT22;2331;48.806;9.140;2024-03-08T14:17:57;12.60;1.00
4637;DHT22;2331;48.806;9.140;2024-03-08T14:20:24;12.60;1.00
4637;DHT22;2331;48.806;9.140;2024-03-08T14:22:51;12.70;1.00
4637;DHT22;2331;48.806;9.140;2024-03-08T14:25:18;12.60;1.00
4637;DHT22;2331;48.806;9.140;2024-03-08T14:27:46;12.60;1.00
4637;DHT22;2331;48.806;9.140;2024-03-08T14:30:15;12.60;1.00
4637;DHT22;2331;48.806;9.140;2024-03-08T14:32:57;12.60;1.00
4637;DHT22;2331;48.806;9.140;2024-03-08T14:35:25;12.60;1.00
4637;DHT22;2331;48.806;9.140;2024-03-08T14:37:51;12.60;1.00
4637;DHT22;2331;48.806;9.140;2024-03-08T14:40:18;12.50;1.00
4637;DHT22;2331;48.806;9.140;2024-03-08T14:42:49;12.60;1.00
4637;DHT22;2331;48.806;9.140;2024-03-08T14:45:16;12.50;1.00
4637;DHT22;2331;48.806;9.140;2024-03-08T14:47:45;12.60;1.00
4637;DHT22;2331;48.806;9.140;2024-03-08T14:50:15;12.60;1.00
4637;DHT22;2331;48.806;9.140;2024-03-08T14:52:42;12.60;1.00
4637;DHT22;2331;48.806;9.140;2024-03-08T14:55:09;12.60;1.00
4637;DHT22;2331;48.806;9.140;2024-03-08T14:57:39;12.60;1.00
4637;DHT22;2331;48.806;9.140;2024-03-08T15:00:08;12.60;1.00
4637;DHT22;2331;48.806;9.140;2024-03-08T15:02:42;12.40;1.00
4637;DHT22;2331;48.806;9.140;2024-03-08T15:05:08;12.40;1.00
4637;DHT22;2331;48.806;9.140;2024-03-08T15:07:37;12.40;1.00
4637;DHT22;2331;48.806;9.140;2024-03-08T15:10:06;12.40;1.00
4637;DHT22;2331;48.806;9.140;2024-03-08T15:12:36;12.50;1.00
4637;DHT22;2331;48.806;9.140;2024-03-08T15:15:07;12.40;1.00
4637;DHT22;2331;48.806;9.140;2024-03-08T15:17:35;12.40;1.00
4637;DHT22;2331;48.806;9.140;2024-03-08T15:20:06;12.40;1.00
4637;DHT22;2331;48.806;9.140;2024-03-08T15:22:41;12.40;1.00
4637;DHT22;2331;48.806;9.140;2024-03-08T15:25:08;12.40;1.00
4637;DHT22;2331;48.806;9.140;2024-03-08T15:27:37;12.40;1.00
4637;DHT22;2331;48.806;9.140;2024-03-08T15:30:07;12.40;1.00
4637;DHT22;2331;48.806;9.140;2024-03-08T15:32:44;12.40;1.00
4637;DHT22;2331;48.806;9.140;2024-03-08T15:35:11;12.40;1.00
4637;DHT22;2331;48.806;9.140;2024-03-08T15:37:40;12.40;1.00
4637;DHT22;2331;48.806;9.140;2024-03-08T15:40:09;12.50;1.00
4637;DHT22;2331;48.806;9.140;2024-03-08T15:42:54;12.50;1.00
4637;DHT22;2331;48.806;9.140;2024-03-08T15:45:23;12.50;1.00
4637;DHT22;2331;48.806;9.140;2024-03-08T15:47:51;12.50;1.00
4637;DHT22;2331;48.806;9.140;2024-03-08T15:50:18;12.50;1.00
4637;DHT22;2331;48.806;9.140;2024-03-08T15:52:49;12.50;1.00
4637;DHT22;2331;48.806;9.140;2024-03-08T15:55:16;12.50;1.00
4637;DHT22;2331;48.806;9.140;2024-03-08T15:57:45;12.50;1.00
4637;DHT22;2331;48.806;9.140;2024-03-08T16:00:20;12.40;1.00
4637;DHT22;2331;48.806;9.140;2024-03-08T16:03:00;12.40;1.00
4637;DHT22;2331;48.806;9.140;2024-03-08T16:05:32;12.40;1.00
4637;DHT22;2331;48.806;9.140;2024-03-08T16:07:58;12.40;1.00
4637;DHT22;2331;48.806;9.140;2024-03-08T16:10:25;12.50;1.00
4637;DHT22;2331;48.806;9.140;2024-03-08T16:12:54;12.50;1.00
4637;DHT22;2331;48.806;9.140;2024-03-08T16:15:20;12.50;1.00
4637;DHT22;2331;48.806;9.140;2024-03-08T16:17:47;12.40;1.00
4637;DHT22;2331;48.806;9.140;2024-03-08T16:20:18;12.50;1.00
4637;DHT22;2331;48.806;9.140;2024-03-08T16:22:47;12.50;1.00
4637;DHT22;2331;48.806;9.140;2024-03-08T16:25:17;12.40;1.00
4637;DHT22;2331;48.806;9.140;2024-03-08T16:27:46;12.40;1.00
4637;DHT22;2331;48.806;9.140;2024-03-08T16:30:13;12.40;1.00
4637;DHT22;2331;48.806;9.140;2024-03-08T16:32:42;12.50;1.00
4637;DHT22;2331;48.806;9.140;2024-03-08T16:35:10;12.50;1.00
4637;DHT22;2331;48.806;9.140;2024-03-08T16:37:38;12.40;1.00